sensor_id;sensor_type;location;lat;lon;timestamp;temperature;humidity
59309;DHT22;48433;53.016;-2.260;2023-04-03T00:01:12;3.70;99.90
59309;DHT22;48433;53.016;-2.260;2023-04-03T00:03:40;3.70;99.90
59309;DHT22;48433;53.016;-2.260;2023-04-03T00:06:10;3.70;99.90
59309;DHT22;48433;53.016;-2.260;2023-04-03T00:08:40;3.70;99.90
59309;DHT22;48433;53.016;-2.260;2023-04-03T00:11:08;3.70;99.90
59309;DHT22;48433;53.016;-2.260;2023-04-03T00:13:37;3.70;99.90
59309;DHT22;48433;53.016;-2.260;2023-04-03T00:16:06;3.60;99.90
59309;DHT22;48433;53.016;-2.260;2023-04-03T00:18:35;3.60;99.90
59309;DHT22;48433;53.016;-2.260;2023-04-03T00:21:03;3.60;99.90
59309;DHT22;48433;53.016;-2.260;2023-04-03T00:23:31;3.60;99.90
59309;DHT22;48433;53.016;-2.260;2023-04-03T00:25:59;3.60;99.90
59309;DHT22;48433;53.016;-2.260;2023-04-03T00:28:26;3.60;99.90
59309;DHT22;48433;53.016;-2.260;2023-04-03T00:30:54;3.60;99.90
59309;DHT22;48433;53.016;-2.260;2023-04-03T00:33:22;3.50;99.90
59309;DHT22;48433;53.016;-2.260;2023-04-03T00:35:50;3.50;99.90
59309;DHT22;48433;53.016;-2.260;2023-04-03T00:38:18;3.50;99.90
59309;DHT22;48433;53.016;-2.260;2023-04-03T00:40:48;3.50;99.90
59309;DHT22;48433;53.016;-2.260;2023-04-03T00:43:22;3.50;99.90
59309;DHT22;48433;53.016;-2.260;2023-04-03T00:45:52;3.40;99.90
59309;DHT22;48433;53.016;-2.260;2023-04-03T00:48:25;3.40;99.90
59309;DHT22;48433;53.016;-2.260;2023-04-03T00:50:53;3.40;99.90
59309;DHT22;48433;53.016;-2.260;2023-04-03T00:53:31;3.40;99.90
59309;DHT22;48433;53.016;-2.260;2023-04-03T00:56:00;3.30;99.90
59309;DHT22;48433;53.016;-2.260;2023-04-03T00:58:38;3.40;99.90
59309;DHT22;48433;53.016;-2.260;2023-04-03T01:01:12;3.30;99.90
59309;DHT22;48433;53.016;-2.260;2023-04-03T01:03:42;3.30;99.90
59309;DHT22;48433;53.016;-2.260;2023-04-03T01:06:11;3.30;99.90
59309;DHT22;48433;53.016;-2.260;2023-04-03T01:08:39;3.30;99.90
59309;DHT22;48433;53.016;-2.260;2023-04-03T01:11:06;3.30;99.90
59309;DHT22;48433;53.016;-2.260;2023-04-03T01:13:34;3.30;99.90
59309;DHT22;48433;53.016;-2.260;2023-04-03T01:16:06;3.20;99.90
59309;DHT22;48433;53.016;-2.260;2023-04-03T01:18:36;3.20;99.90
59309;DHT22;48433;53.016;-2.260;2023-04-03T01:26:15;3.10;99.90
59309;DHT22;48433;53.016;-2.260;2023-04-03T01:28:43;3.10;99.90
59309;DHT22;48433;53.016;-2.260;2023-04-03T01:31:24;3.10;99.90
59309;DHT22;48433;53.016;-2.260;2023-04-03T01:33:54;3.10;99.90
59309;DHT22;48433;53.016;-2.260;2023-04-03T01:36:28;3.10;99.90
59309;DHT22;48433;53.016;-2.260;2023-04-03T01:38:58;3.10;99.90
59309;DHT22;48433;53.016;-2.260;2023-04-03T01:41:28;3.00;99.90
59309;DHT22;48433;53.016;-2.260;2023-04-03T01:44:02;3.00;99.90
59309;DHT22;48433;53.016;-2.260;2023-04-03T01:46:31;2.90;99.90
59309;DHT22;48433;53.016;-2.260;2023-04-03T01:48:59;2.90;99.90
59309;DHT22;48433;53.016;-2.260;2023-04-03T01:51:26;2.90;99.90
59309;DHT22;48433;53.016;-2.260;2023-04-03T01:53:54;2.90;99.90
59309;DHT22;48433;53.016;-2.260;2023-04-03T01:56:22;2.90;99.90
59309;DHT22;48433;53.016;-2.260;2023-04-03T01:58:50;2.80;99.90
59309;DHT22;48433;53.016;-2.260;2023-04-03T02:01:18;2.80;99.90
59309;DHT22;48433;53.016;-2.260;2023-04-03T02:03:45;2.80;99.90
59309;DHT22;48433;53.016;-2.260;2023-04-03T02:06:13;2.70;99.90
59309;DHT22;48433;53.016;-2.260;2023-04-03T02:08:41;2.60;99.90
59309;DHT22;48433;53.016;-2.260;2023-04-03T02:11:09;2.60;99.90
59309;DHT22;48433;53.016;-2.260;2023-04-03T02:13:36;2.60;99.90
59309;DHT22;48433;53.016;-2.260;2023-04-03T02:16:09;2.60;99.90
59309;DHT22;48433;53.016;-2.260;2023-04-03T02:18:37;2.60;99.90
59309;DHT22;48433;53.016;-2.260;2023-04-03T02:21:05;2.50;99.90
59309;DHT22;48433;53.016;-2.260;2023-04-03T02:23:33;2.50;99.90
59309;DHT22;48433;53.016;-2.260;2023-04-03T02:26:14;2.50;99.90
59309;DHT22;48433;53.016;-2.260;2023-04-03T02:28:45;2.50;99.90
59309;DHT22;48433;53.016;-2.260;2023-04-03T02:31:13;2.40;99.90
59309;DHT22;48433;53.016;-2.260;2023-04-03T02:33:43;2.40;99.90
59309;DHT22;48433;53.016;-2.260;2023-04-03T02:36:13;2.40;99.90
59309;DHT22;48433;53.016;-2.260;2023-04-03T02:41:13;2.30;99.90
59309;DHT22;48433;53.016;-2.260;2023-04-03T02:43:40;2.30;99.90
59309;DHT22;48433;53.016;-2.260;2023-04-03T02:46:08;2.20;99.90
59309;DHT22;48433;53.016;-2.260;2023-04-03T02:48:36;2.20;99.90
59309;DHT22;48433;53.016;-2.260;2023-04-03T02:51:04;2.20;99.90
59309;DHT22;48433;53.016;-2.260;2023-04-03T02:53:32;2.30;99.90
59309;DHT22;48433;53.016;-2.260;2023-04-03T02:56:06;2.20;99.90
59309;DHT22;48433;53.016;-2.260;2023-04-03T02:58:34;2.20;99.90
59309;DHT22;48433;53.016;-2.260;2023-04-03T03:01:04;2.20;99.90
59309;DHT22;48433;53.016;-2.260;2023-04-03T03:03:31;2.10;99.90
59309;DHT22;48433;53.016;-2.260;2023-04-03T03:06:11;2.10;99.90
59309;DHT22;48433;53.016;-2.260;2023-04-03T03:08:40;2.10;99.90
59309;DHT22;48433;53.016;-2.260;2023-04-03T03:11:09;2.00;99.90
59309;DHT22;48433;53.016;-2.260;2023-04-03T03:13:37;2.10;99.90
59309;DHT22;48433;53.016;-2.260;2023-04-03T03:16:05;2.10;99.90
59309;DHT22;48433;53.016;-2.260;2023-04-03T03:18:33;2.10;99.90
59309;DHT22;48433;53.016;-2.260;2023-04-03T03:21:02;2.10;99.90
59309;DHT22;48433;53.016;-2.260;2023-04-03T03:23:31;2.00;99.90
59309;DHT22;48433;53.016;-2.260;2023-04-03T03:26:05;1.90;99.90
59309;DHT22;48433;53.016;-2.260;2023-04-03T03:28:35;1.90;99.90
59309;DHT22;48433;53.016;-2.260;2023-04-03T03:31:06;1.80;99.90
59309;DHT22;48433;53.016;-2.260;2023-04-03T03:33:35;1.80;99.90
59309;DHT22;48433;53.016;-2.260;2023-04-03T03:36:03;1.80;99.90
59309;DHT22;48433;53.016;-2.260;2023-04-03T03:38:31;1.80;99.90
59309;DHT22;48433;53.016;-2.260;2023-04-03T03:41:00;1.80;99.90
59309;DHT22;48433;53.016;-2.260;2023-04-03T03:43:30;1.70;99.90
59309;DHT22;48433;53.016;-2.260;2023-04-03T03:45:58;1.70;99.90
59309;DHT22;48433;53.016;-2.260;2023-04-03T03:48:26;1.70;99.90
59309;DHT22;48433;53.016;-2.260;2023-04-03T03:50:54;1.70;99.90
59309;DHT22;48433;53.016;-2.260;2023-04-03T03:53:26;1.70;99.90
59309;DHT22;48433;53.016;-2.260;2023-04-03T03:55:57;1.60;99.90
59309;DHT22;48433;53.016;-2.260;2023-04-03T03:58:27;1.70;99.90
59309;DHT22;48433;53.016;-2.260;2023-04-03T04:00:55;1.60;99.90
59309;DHT22;48433;53.016;-2.260;2023-04-03T04:03:22;1.70;99.90
59309;DHT22;48433;53.016;-2.260;2023-04-03T04:05:51;1.60;99.90
59309;DHT22;48433;53.016;-2.260;2023-04-03T04:08:19;1.70;99.90
59309;DHT22;48433;53.016;-2.260;2023-04-03T04:10:47;1.70;99.90
59309;DHT22;48433;53.016;-2.260;2023-04-03T04:13:17;1.70;99.90
59309;DHT22;48433;53.016;-2.260;2023-04-03T04:15:45;1.70;99.90
59309;DHT22;48433;53.016;-2.260;2023-04-03T04:18:14;1.70;99.90
59309;DHT22;48433;53.016;-2.260;2023-04-03T04:20:45;1.70;99.90
59309;DHT22;48433;53.016;-2.260;2023-04-03T04:23:17;1.60;99.90
59309;DHT22;48433;53.016;-2.260;2023-04-03T04:25:47;1.60;99.90
59309;DHT22;48433;53.016;-2.260;2023-04-03T04:28:15;1.60;99.90
59309;DHT22;48433;53.016;-2.260;2023-04-03T04:30:44;1.60;99.90
59309;DHT22;48433;53.016;-2.260;2023-04-03T04:33:13;1.60;99.90
59309;DHT22;48433;53.016;-2.260;2023-04-03T04:35:42;-1.40;99.90
59309;DHT22;48433;53.016;-2.260;2023-04-03T04:38:11;1.60;99.90
59309;DHT22;48433;53.016;-2.260;2023-04-03T04:40:39;1.60;99.90
59309;DHT22;48433;53.016;-2.260;2023-04-03T04:43:08;1.60;99.90
59309;DHT22;48433;53.016;-2.260;2023-04-03T04:45:36;1.60;99.90
59309;DHT22;48433;53.016;-2.260;2023-04-03T04:48:04;1.50;99.90
59309;DHT22;48433;53.016;-2.260;2023-04-03T04:50:32;1.50;99.90
59309;DHT22;48433;53.016;-2.260;2023-04-03T04:52:59;1.50;99.90
59309;DHT22;48433;53.016;-2.260;2023-04-03T04:55:27;1.50;99.90
59309;DHT22;48433;53.016;-2.260;2023-04-03T04:57:55;1.40;99.90
59309;DHT22;48433;53.016;-2.260;2023-04-03T05:00:23;1.40;99.90
59309;DHT22;48433;53.016;-2.260;2023-04-03T05:02:51;1.40;99.90
59309;DHT22;48433;53.016;-2.260;2023-04-03T05:05:19;1.40;99.90
59309;DHT22;48433;53.016;-2.260;2023-04-03T05:07:47;1.40;99.90
59309;DHT22;48433;53.016;-2.260;2023-04-03T05:10:16;1.40;99.90
59309;DHT22;48433;53.016;-2.260;2023-04-03T05:12:45;1.30;99.90
59309;DHT22;48433;53.016;-2.260;2023-04-03T05:15:13;1.30;99.90
59309;DHT22;48433;53.016;-2.260;2023-04-03T05:17:41;1.30;99.90
59309;DHT22;48433;53.016;-2.260;2023-04-03T05:20:12;1.30;99.90
59309;DHT22;48433;53.016;-2.260;2023-04-03T05:22:42;1.20;99.90
59309;DHT22;48433;53.016;-2.260;2023-04-03T05:25:10;1.20;99.90
59309;DHT22;48433;53.016;-2.260;2023-04-03T05:27:39;1.20;99.90
59309;DHT22;48433;53.016;-2.260;2023-04-03T05:30:08;1.20;99.90
59309;DHT22;48433;53.016;-2.260;2023-04-03T05:32:37;1.10;99.90
59309;DHT22;48433;53.016;-2.260;2023-04-03T05:35:22;1.20;99.90
59309;DHT22;48433;53.016;-2.260;2023-04-03T05:37:54;1.10;99.90
59309;DHT22;48433;53.016;-2.260;2023-04-03T05:40:22;1.10;99.90
59309;DHT22;48433;53.016;-2.260;2023-04-03T05:42:52;1.10;99.90
59309;DHT22;48433;53.016;-2.260;2023-04-03T05:45:23;1.10;99.90
59309;DHT22;48433;53.016;-2.260;2023-04-03T05:47:51;1.10;99.90
59309;DHT22;48433;53.016;-2.260;2023-04-03T05:50:19;1.20;99.90
59309;DHT22;48433;53.016;-2.260;2023-04-03T05:52:51;1.10;99.90
59309;DHT22;48433;53.016;-2.260;2023-04-03T05:55:22;1.10;99.90
59309;DHT22;48433;53.016;-2.260;2023-04-03T05:57:50;1.20;99.90
59309;DHT22;48433;53.016;-2.260;2023-04-03T06:00:18;1.10;99.90
59309;DHT22;48433;53.016;-2.260;2023-04-03T06:02:54;1.20;99.90
59309;DHT22;48433;53.016;-2.260;2023-04-03T06:05:25;1.10;99.90
59309;DHT22;48433;53.016;-2.260;2023-04-03T06:07:52;1.30;99.90
59309;DHT22;48433;53.016;-2.260;2023-04-03T06:10:20;1.20;99.90
59309;DHT22;48433;53.016;-2.260;2023-04-03T06:12:48;1.30;99.90
59309;DHT22;48433;53.016;-2.260;2023-04-03T06:15:15;1.30;99.90
59309;DHT22;48433;53.016;-2.260;2023-04-03T06:17:44;1.40;99.90
59309;DHT22;48433;53.016;-2.260;2023-04-03T06:20:13;1.40;99.90
59309;DHT22;48433;53.016;-2.260;2023-04-03T06:22:41;1.30;99.90
59309;DHT22;48433;53.016;-2.260;2023-04-03T06:25:11;1.40;99.90
59309;DHT22;48433;53.016;-2.260;2023-04-03T06:27:39;1.50;99.90
59309;DHT22;48433;53.016;-2.260;2023-04-03T06:30:08;1.50;99.90
59309;DHT22;48433;53.016;-2.260;2023-04-03T06:32:36;1.60;99.90
59309;DHT22;48433;53.016;-2.260;2023-04-03T06:35:05;1.60;99.90
59309;DHT22;48433;53.016;-2.260;2023-04-03T06:37:32;1.60;99.90
59309;DHT22;48433;53.016;-2.260;2023-04-03T06:40:00;1.70;99.90
59309;DHT22;48433;53.016;-2.260;2023-04-03T06:42:28;1.80;99.90
59309;DHT22;48433;53.016;-2.260;2023-04-03T06:45:06;1.90;99.90
59309;DHT22;48433;53.016;-2.260;2023-04-03T06:47:35;2.00;99.90
59309;DHT22;48433;53.016;-2.260;2023-04-03T06:50:03;2.00;99.90
59309;DHT22;48433;53.016;-2.260;2023-04-03T06:52:30;2.20;99.90
59309;DHT22;48433;53.016;-2.260;2023-04-03T06:54:58;2.30;99.90
59309;DHT22;48433;53.016;-2.260;2023-04-03T06:57:27;2.30;99.90
59309;DHT22;48433;53.016;-2.260;2023-04-03T06:59:55;2.40;99.90
59309;DHT22;48433;53.016;-2.260;2023-04-03T07:02:23;2.50;99.90
59309;DHT22;48433;53.016;-2.260;2023-04-03T07:04:51;2.60;99.90
59309;DHT22;48433;53.016;-2.260;2023-04-03T07:07:19;2.70;99.90
59309;DHT22;48433;53.016;-2.260;2023-04-03T07:09:47;2.80;99.90
59309;DHT22;48433;53.016;-2.260;2023-04-03T07:12:17;3.10;99.90
59309;DHT22;48433;53.016;-2.260;2023-04-03T07:14:45;3.10;99.90
59309;DHT22;48433;53.016;-2.260;2023-04-03T07:17:13;3.40;99.90
59309;DHT22;48433;53.016;-2.260;2023-04-03T07:19:40;3.40;99.90
59309;DHT22;48433;53.016;-2.260;2023-04-03T07:22:08;3.50;99.90
59309;DHT22;48433;53.016;-2.260;2023-04-03T07:24:38;3.60;99.90
59309;DHT22;48433;53.016;-2.260;2023-04-03T07:27:06;3.70;99.90
59309;DHT22;48433;53.016;-2.260;2023-04-03T07:29:35;3.70;99.90
59309;DHT22;48433;53.016;-2.260;2023-04-03T07:32:03;3.70;99.90
59309;DHT22;48433;53.016;-2.260;2023-04-03T07:34:32;3.90;99.90
59309;DHT22;48433;53.016;-2.260;2023-04-03T07:37:00;3.90;99.90
59309;DHT22;48433;53.016;-2.260;2023-04-03T07:39:29;4.10;99.90
59309;DHT22;48433;53.016;-2.260;2023-04-03T07:41:56;4.20;99.90
59309;DHT22;48433;53.016;-2.260;2023-04-03T07:44:24;4.30;99.90
59309;DHT22;48433;53.016;-2.260;2023-04-03T07:46:52;4.40;99.90
59309;DHT22;48433;53.016;-2.260;2023-04-03T07:49:20;4.40;99.90
59309;DHT22;48433;53.016;-2.260;2023-04-03T07:51:51;4.50;99.90
59309;DHT22;48433;53.016;-2.260;2023-04-03T07:54:20;4.60;99.90
59309;DHT22;48433;53.016;-2.260;2023-04-03T07:56:48;4.70;99.90
59309;DHT22;48433;53.016;-2.260;2023-04-03T07:59:16;5.00;99.90
59309;DHT22;48433;53.016;-2.260;2023-04-03T08:01:43;5.00;99.90
59309;DHT22;48433;53.016;-2.260;2023-04-03T08:04:11;5.10;99.90
59309;DHT22;48433;53.016;-2.260;2023-04-03T08:06:39;5.20;99.90
59309;DHT22;48433;53.016;-2.260;2023-04-03T08:09:15;5.30;99.90
59309;DHT22;48433;53.016;-2.260;2023-04-03T08:11:43;5.40;99.90
59309;DHT22;48433;53.016;-2.260;2023-04-03T08:14:12;5.50;99.90
59309;DHT22;48433;53.016;-2.260;2023-04-03T08:16:45;5.70;99.90
59309;DHT22;48433;53.016;-2.260;2023-04-03T08:19:15;5.90;99.90
59309;DHT22;48433;53.016;-2.260;2023-04-03T08:21:54;6.00;99.90
59309;DHT22;48433;53.016;-2.260;2023-04-03T08:24:22;6.10;99.90
59309;DHT22;48433;53.016;-2.260;2023-04-03T08:26:50;6.20;99.90
59309;DHT22;48433;53.016;-2.260;2023-04-03T08:29:17;6.40;99.90
59309;DHT22;48433;53.016;-2.260;2023-04-03T08:31:45;6.40;99.90
59309;DHT22;48433;53.016;-2.260;2023-04-03T08:34:13;6.60;99.90
59309;DHT22;48433;53.016;-2.260;2023-04-03T08:36:42;6.90;99.90
59309;DHT22;48433;53.016;-2.260;2023-04-03T08:39:10;7.20;99.90
59309;DHT22;48433;53.016;-2.260;2023-04-03T08:41:42;7.40;99.90
59309;DHT22;48433;53.016;-2.260;2023-04-03T08:49:53;8.00;99.90
59309;DHT22;48433;53.016;-2.260;2023-04-03T08:58:04;8.90;99.90
59309;DHT22;48433;53.016;-2.260;2023-04-03T09:00:50;8.90;99.90
59309;DHT22;48433;53.016;-2.260;2023-04-03T09:03:20;9.10;99.90
59309;DHT22;48433;53.016;-2.260;2023-04-03T09:06:14;9.30;99.90
59309;DHT22;48433;53.016;-2.260;2023-04-03T09:11:27;9.70;99.90
59309;DHT22;48433;53.016;-2.260;2023-04-03T09:16:56;10.40;99.90
59309;DHT22;48433;53.016;-2.260;2023-04-03T09:21:53;10.60;99.90
59309;DHT22;48433;53.016;-2.260;2023-04-03T09:24:24;10.80;99.90
59309;DHT22;48433;53.016;-2.260;2023-04-03T09:26:58;11.00;99.90
59309;DHT22;48433;53.016;-2.260;2023-04-03T09:29:27;11.00;99.90
59309;DHT22;48433;53.016;-2.260;2023-04-03T09:32:02;11.10;99.90
59309;DHT22;48433;53.016;-2.260;2023-04-03T09:34:41;11.20;99.90
59309;DHT22;48433;53.016;-2.260;2023-04-03T09:37:41;11.40;99.90
59309;DHT22;48433;53.016;-2.260;2023-04-03T09:40:32;11.70;99.60
59309;DHT22;48433;53.016;-2.260;2023-04-03T09:43:24;12.00;99.80
59309;DHT22;48433;53.016;-2.260;2023-04-03T09:45:53;12.00;99.90
59309;DHT22;48433;53.016;-2.260;2023-04-03T09:48:25;12.50;98.30
59309;DHT22;48433;53.016;-2.260;2023-04-03T09:50:56;12.50;97.70
59309;DHT22;48433;53.016;-2.260;2023-04-03T09:56:03;12.80;96.40
59309;DHT22;48433;53.016;-2.260;2023-04-03T09:58:36;12.90;95.50
59309;DHT22;48433;53.016;-2.260;2023-04-03T10:04:18;13.10;94.30
59309;DHT22;48433;53.016;-2.260;2023-04-03T10:06:49;13.30;94.00
59309;DHT22;48433;53.016;-2.260;2023-04-03T10:09:31;13.40;93.00
59309;DHT22;48433;53.016;-2.260;2023-04-03T10:12:07;13.30;92.50
59309;DHT22;48433;53.016;-2.260;2023-04-03T10:14:38;12.90;92.30
59309;DHT22;48433;53.016;-2.260;2023-04-03T10:20:36;12.70;93.10
59309;DHT22;48433;53.016;-2.260;2023-04-03T10:29:21;14.10;90.00
59309;DHT22;48433;53.016;-2.260;2023-04-03T10:31:33;14.20;89.50
59309;DHT22;48433;53.016;-2.260;2023-04-03T10:42:22;15.00;81.90
59309;DHT22;48433;53.016;-2.260;2023-04-03T10:47:40;15.10;78.70
59309;DHT22;48433;53.016;-2.260;2023-04-03T10:50:43;15.20;76.50
59309;DHT22;48433;53.016;-2.260;2023-04-03T10:53:31;15.40;77.60
59309;DHT22;48433;53.016;-2.260;2023-04-03T10:58:35;15.20;72.30
59309;DHT22;48433;53.016;-2.260;2023-04-03T11:01:12;15.20;73.80
59309;DHT22;48433;53.016;-2.260;2023-04-03T11:03:51;15.30;73.50
59309;DHT22;48433;53.016;-2.260;2023-04-03T11:06:24;15.60;72.70
59309;DHT22;48433;53.016;-2.260;2023-04-03T11:08:58;16.00;70.90
59309;DHT22;48433;53.016;-2.260;2023-04-03T11:11:31;16.20;72.00
59309;DHT22;48433;53.016;-2.260;2023-04-03T11:14:17;16.50;72.40
59309;DHT22;48433;53.016;-2.260;2023-04-03T11:16:49;16.80;69.00
59309;DHT22;48433;53.016;-2.260;2023-04-03T11:19:27;16.40;67.20
59309;DHT22;48433;53.016;-2.260;2023-04-03T11:22:04;16.40;68.50
59309;DHT22;48433;53.016;-2.260;2023-04-03T11:24:34;16.50;68.10
59309;DHT22;48433;53.016;-2.260;2023-04-03T11:27:05;16.80;65.80
59309;DHT22;48433;53.016;-2.260;2023-04-03T11:29:35;17.00;63.10
59309;DHT22;48433;53.016;-2.260;2023-04-03T11:34:52;17.00;64.40
59309;DHT22;48433;53.016;-2.260;2023-04-03T11:37:40;17.50;65.00
59309;DHT22;48433;53.016;-2.260;2023-04-03T11:40:29;17.50;61.10
59309;DHT22;48433;53.016;-2.260;2023-04-03T11:43:55;17.00;61.30
59309;DHT22;48433;53.016;-2.260;2023-04-03T11:46:10;16.70;61.70
59309;DHT22;48433;53.016;-2.260;2023-04-03T11:48:43;16.10;62.30
59309;DHT22;48433;53.016;-2.260;2023-04-03T11:53:48;16.40;62.40
59309;DHT22;48433;53.016;-2.260;2023-04-03T12:01:54;17.00;60.90
59309;DHT22;48433;53.016;-2.260;2023-04-03T12:04:24;16.80;61.80
59309;DHT22;48433;53.016;-2.260;2023-04-03T12:09:58;17.40;60.40
59309;DHT22;48433;53.016;-2.260;2023-04-03T12:12:30;18.00;60.30
59309;DHT22;48433;53.016;-2.260;2023-04-03T12:15:23;18.60;58.10
59309;DHT22;48433;53.016;-2.260;2023-04-03T12:17:51;19.00;54.60
59309;DHT22;48433;53.016;-2.260;2023-04-03T12:23:56;19.10;54.80
59309;DHT22;48433;53.016;-2.260;2023-04-03T12:26:22;19.20;54.40
59309;DHT22;48433;53.016;-2.260;2023-04-03T12:28:53;19.20;51.50
59309;DHT22;48433;53.016;-2.260;2023-04-03T12:31:24;19.00;52.80
59309;DHT22;48433;53.016;-2.260;2023-04-03T12:34:09;19.00;53.60
59309;DHT22;48433;53.016;-2.260;2023-04-03T12:36:52;19.40;53.60
59309;DHT22;48433;53.016;-2.260;2023-04-03T12:47:36;20.40;51.70
59309;DHT22;48433;53.016;-2.260;2023-04-03T12:50:25;20.40;49.60
59309;DHT22;48433;53.016;-2.260;2023-04-03T12:52:59;20.60;49.60
59309;DHT22;48433;53.016;-2.260;2023-04-03T12:55:29;20.70;48.10
59309;DHT22;48433;53.016;-2.260;2023-04-03T12:57:57;20.20;46.90
59309;DHT22;48433;53.016;-2.260;2023-04-03T13:00:33;20.10;47.70
59309;DHT22;48433;53.016;-2.260;2023-04-03T13:03:03;20.00;47.70
59309;DHT22;48433;53.016;-2.260;2023-04-03T13:05:33;20.00;48.30
59309;DHT22;48433;53.016;-2.260;2023-04-03T13:08:07;20.50;47.50
59309;DHT22;48433;53.016;-2.260;2023-04-03T13:11:08;20.50;48.00
59309;DHT22;48433;53.016;-2.260;2023-04-03T13:13:37;20.80;47.50
59309;DHT22;48433;53.016;-2.260;2023-04-03T13:16:11;21.10;46.50
59309;DHT22;48433;53.016;-2.260;2023-04-03T13:18:39;21.20;45.50
59309;DHT22;48433;53.016;-2.260;2023-04-03T13:21:15;21.30;46.30
59309;DHT22;48433;53.016;-2.260;2023-04-03T13:23:47;21.40;45.30
59309;DHT22;48433;53.016;-2.260;2023-04-03T13:26:21;21.50;44.70
59309;DHT22;48433;53.016;-2.260;2023-04-03T13:28:49;21.00;42.90
59309;DHT22;48433;53.016;-2.260;2023-04-03T13:31:25;20.80;43.30
59309;DHT22;48433;53.016;-2.260;2023-04-03T13:34:02;20.80;44.20
59309;DHT22;48433;53.016;-2.260;2023-04-03T13:36:34;20.70;44.80
59309;DHT22;48433;53.016;-2.260;2023-04-03T13:39:21;20.80;43.60
59309;DHT22;48433;53.016;-2.260;2023-04-03T13:41:55;20.90;44.70
59309;DHT22;48433;53.016;-2.260;2023-04-03T13:47:01;21.00;44.40
59309;DHT22;48433;53.016;-2.260;2023-04-03T13:50:19;21.00;43.90
59309;DHT22;48433;53.016;-2.260;2023-04-03T13:52:54;21.60;43.60
59309;DHT22;48433;53.016;-2.260;2023-04-03T13:55:25;21.60;44.10
59309;DHT22;48433;53.016;-2.260;2023-04-03T14:00:47;22.10;42.10
59309;DHT22;48433;53.016;-2.260;2023-04-03T14:03:25;22.20;42.70
59309;DHT22;48433;53.016;-2.260;2023-04-03T14:05:53;22.20;42.00
59309;DHT22;48433;53.016;-2.260;2023-04-03T14:08:21;22.00;40.50
59309;DHT22;48433;53.016;-2.260;2023-04-03T14:11:02;21.70;40.70
59309;DHT22;48433;53.016;-2.260;2023-04-03T14:13:31;21.70;41.20
59309;DHT22;48433;53.016;-2.260;2023-04-03T14:15:59;21.80;41.10
59309;DHT22;48433;53.016;-2.260;2023-04-03T14:18:43;21.80;41.10
59309;DHT22;48433;53.016;-2.260;2023-04-03T14:21:13;22.00;41.30
59309;DHT22;48433;53.016;-2.260;2023-04-03T14:23:42;21.90;41.70
59309;DHT22;48433;53.016;-2.260;2023-04-03T15:28:35;21.30;40.90
59309;DHT22;48433;53.016;-2.260;2023-04-03T15:31:04;20.90;41.60
59309;DHT22;48433;53.016;-2.260;2023-04-03T15:33:33;21.40;42.00
59309;DHT22;48433;53.016;-2.260;2023-04-03T15:36:03;21.50;41.50
59309;DHT22;48433;53.016;-2.260;2023-04-03T15:38:43;21.40;41.10
59309;DHT22;48433;53.016;-2.260;2023-04-03T15:41:11;21.40;41.30
59309;DHT22;48433;53.016;-2.260;2023-04-03T15:43:39;21.20;41.60
59309;DHT22;48433;53.016;-2.260;2023-04-03T15:46:07;20.90;41.80
59309;DHT22;48433;53.016;-2.260;2023-04-03T15:48:36;20.20;42.80
59309;DHT22;48433;53.016;-2.260;2023-04-03T15:51:05;20.00;43.40
59309;DHT22;48433;53.016;-2.260;2023-04-03T15:53:33;20.00;43.90
59309;DHT22;48433;53.016;-2.260;2023-04-03T15:56:00;19.90;43.80
59309;DHT22;48433;53.016;-2.260;2023-04-03T15:58:28;20.10;43.40
59309;DHT22;48433;53.016;-2.260;2023-04-03T16:00:57;20.10;43.90
59309;DHT22;48433;53.016;-2.260;2023-04-03T16:03:24;20.00;43.70
59309;DHT22;48433;53.016;-2.260;2023-04-03T16:05:52;19.90;43.80
59309;DHT22;48433;53.016;-2.260;2023-04-03T16:08:20;19.60;44.40
59309;DHT22;48433;53.016;-2.260;2023-04-03T16:10:48;19.50;44.80
59309;DHT22;48433;53.016;-2.260;2023-04-03T16:13:16;19.40;45.20
59309;DHT22;48433;53.016;-2.260;2023-04-03T16:15:44;19.30;45.60
59309;DHT22;48433;53.016;-2.260;2023-04-03T16:18:11;19.40;45.40
59309;DHT22;48433;53.016;-2.260;2023-04-03T16:20:41;19.40;45.80
59309;DHT22;48433;53.016;-2.260;2023-04-03T16:23:11;19.40;45.40
59309;DHT22;48433;53.016;-2.260;2023-04-03T16:25:39;19.30;45.40
59309;DHT22;48433;53.016;-2.260;2023-04-03T17:28:10;14.10;53.90
59309;DHT22;48433;53.016;-2.260;2023-04-03T17:30:38;14.00;54.70
59309;DHT22;48433;53.016;-2.260;2023-04-03T17:33:05;13.40;56.10
59309;DHT22;48433;53.016;-2.260;2023-04-03T17:35:33;13.30;56.60
59309;DHT22;48433;53.016;-2.260;2023-04-03T17:38:01;12.80;58.00
59309;DHT22;48433;53.016;-2.260;2023-04-03T17:40:28;12.80;58.50
59309;DHT22;48433;53.016;-2.260;2023-04-03T17:42:56;12.60;59.20
59309;DHT22;48433;53.016;-2.260;2023-04-03T17:45:23;12.40;59.70
59309;DHT22;48433;53.016;-2.260;2023-04-03T17:47:51;12.30;60.80
59309;DHT22;48433;53.016;-2.260;2023-04-03T17:50:19;12.10;61.40
59309;DHT22;48433;53.016;-2.260;2023-04-03T17:52:47;12.10;62.10
59309;DHT22;48433;53.016;-2.260;2023-04-03T17:55:15;12.00;62.40
59309;DHT22;48433;53.016;-2.260;2023-04-03T17:57:44;11.80;63.70
59309;DHT22;48433;53.016;-2.260;2023-04-03T18:00:13;11.80;64.40
59309;DHT22;48433;53.016;-2.260;2023-04-03T18:02:42;11.70;64.90
59309;DHT22;48433;53.016;-2.260;2023-04-03T18:05:10;11.60;65.70
59309;DHT22;48433;53.016;-2.260;2023-04-03T18:07:38;11.40;67.80
59309;DHT22;48433;53.016;-2.260;2023-04-03T18:10:07;11.40;67.90
59309;DHT22;48433;53.016;-2.260;2023-04-03T18:12:36;11.20;69.30
59309;DHT22;48433;53.016;-2.260;2023-04-03T18:15:04;11.20;69.90
59309;DHT22;48433;53.016;-2.260;2023-04-03T18:17:32;11.20;71.00
59309;DHT22;48433;53.016;-2.260;2023-04-03T18:20:00;11.00;72.10
59309;DHT22;48433;53.016;-2.260;2023-04-03T18:22:28;11.00;73.20
59309;DHT22;48433;53.016;-2.260;2023-04-03T18:24:56;10.80;74.40
59309;DHT22;48433;53.016;-2.260;2023-04-03T18:27:25;10.70;75.00
59309;DHT22;48433;53.016;-2.260;2023-04-03T18:29:57;10.60;76.60
59309;DHT22;48433;53.016;-2.260;2023-04-03T18:32:27;10.50;78.00
59309;DHT22;48433;53.016;-2.260;2023-04-03T18:34:55;10.50;78.70
59309;DHT22;48433;53.016;-2.260;2023-04-03T18:37:23;10.30;79.70
59309;DHT22;48433;53.016;-2.260;2023-04-03T18:39:51;10.30;81.00
59309;DHT22;48433;53.016;-2.260;2023-04-03T18:42:22;10.20;82.50
59309;DHT22;48433;53.016;-2.260;2023-04-03T18:44:55;10.20;83.20
59309;DHT22;48433;53.016;-2.260;2023-04-03T18:47:26;10.00;84.40
59309;DHT22;48433;53.016;-2.260;2023-04-03T18:49:56;10.00;84.70
59309;DHT22;48433;53.016;-2.260;2023-04-03T18:52:24;10.00;86.20
59309;DHT22;48433;53.016;-2.260;2023-04-03T18:54:52;9.90;87.90
59309;DHT22;48433;53.016;-2.260;2023-04-03T18:57:20;9.70;89.10
59309;DHT22;48433;53.016;-2.260;2023-04-03T19:02:17;9.60;90.60
59309;DHT22;48433;53.016;-2.260;2023-04-03T19:04:48;9.50;91.20
59309;DHT22;48433;53.016;-2.260;2023-04-03T19:07:19;9.50;92.00
59309;DHT22;48433;53.016;-2.260;2023-04-03T19:09:47;9.40;92.50
59309;DHT22;48433;53.016;-2.260;2023-04-03T19:12:16;9.40;92.90
59309;DHT22;48433;53.016;-2.260;2023-04-03T19:14:45;9.20;93.40
59309;DHT22;48433;53.016;-2.260;2023-04-03T19:17:14;9.20;93.80
59309;DHT22;48433;53.016;-2.260;2023-04-03T19:19:44;9.10;94.30